BGSFBGGH

Guest
Details From BGSF - Kangerlussuaq
To BGGH - Nuuk
Flight Number -
Tags generated
Created
Modified
Stats Distance 171 nm / 317 km
Max Altitude 16,300 ft / 4,968 m
Waypoints 3
Social Downloads 0
Likes 0
Share VATSIM

Download

Looking for another format? Having issues loading an existing format? Contact us
Advertisement - Login to hide

Notes

Basic altitude profile: - Ascent Rate: 1500ft/min - Ascent Speed: 220kts - Cruise Altitude: 22000ft - Cruise Speed: 250kts - Descent Rate: 1800ft/min - Descent Speed: 240kts Options: - Use NATs: yes - Use PACOTS: yes - Use low airways: yes - Use high airways: yes

Route

BGSF ROSIE BGGH

ID Type Via Altitude Latitude Longitude Leg Dist Tot Dist Heading (true) Name
O BGSF APT - 0 ft / 0 m 67.01160˚ -50.71472˚ - 0 nm - Kangerlussuaq
ROSIE FIX - 16,300 ft / 4,968 m 65.53917˚ -51.46611˚ 90 nm 90 nm 192° / 191° -
O BGGH APT - 0 ft / 0 m 64.19302˚ -51.67645˚ 81 nm 171 nm 184° / 184° Nuuk

Altitude Profile

Advertisement - Login to hide

Weather


0- 5 10 15 20 25 30 35+ Temperature / ° C

Clouds and Precipitation
Forecast for 2018-06-25 12:00 UTC. Updated 2 hours ago

Ground ~20,000 ft ~40,000 ft Winds

BGSF

Details ICAO BGSF (SFJ)
Name Kangerlussuaq
Region Greenland
Timezone America/Godthab (UTC-2.0)
Stats Elevation 165 ft / 50 m (AMSL)
Location 67.011605° -50.714721°
Runways 2
Magnetic Variation 28.821° W

METAR

BGSF 251050Z AUTO 25012KT 9999NDV -RA FEW013/// SCT020/// OVC035/// 05/04 Q1002

Decode

TAF

TAF AMD TAF AMD BGSF 250602Z 2506/2612 28010KT 9999 BKN080 TEMPO 2506/2509 SCT080 BECMG 2509/2512 BKN020 TEMPO 2512/2604 SCT020 BKN040 BECMG 2604/2606 08008KT SCT040 TEMPO 2606/2612 BKN035

Decode

Departure Runways

ID Width Length Bearing (true) Bearing (mag) Surface Threshold Offset Overrun Length
09 197 ft / 60 m 9,169 ft / 2,795 m 61.57° 90.39° Asphalt 0 ft / 0 m 509 ft / 155 m
10 197 ft / 60 m 9,187 ft / 2,800 m 61.55° 90.37° Asphalt 0 ft / 0 m 0 ft / 0 m
27 197 ft / 60 m 9,169 ft / 2,795 m 241.63° 270.45° Asphalt 0 ft / 0 m 171 ft / 52 m
28 197 ft / 60 m 9,187 ft / 2,800 m 241.60° 270.42° Asphalt 0 ft / 0 m 0 ft / 0 m

BGGH

Details ICAO BGGH (GOH)
Name Nuuk
Region Greenland
Timezone America/Godthab (UTC-2.0)
Stats Elevation 283 ft / 86 m (AMSL)
Location 64.193021° -51.676454°
Runways 1
Magnetic Variation 26.830° W

METAR

BGGH 251050Z 27006KT 220V300 9999 -SHSN FEW005 SCT018 BKN024 01/M01 Q1006

Decode

TAF

Not found

Destination Runways

ID Width Length Bearing (true) Bearing (mag) Surface Threshold Offset Overrun Length
05 98 ft / 30 m 3,113 ft / 949 m 18.44° 45.27° Asphalt 0 ft / 0 m 0 ft / 0 m
23 98 ft / 30 m 3,113 ft / 949 m 198.44° 225.27° Asphalt 0 ft / 0 m 0 ft / 0 m

Popular Alternatives